createdAt,value
2022-11-05T00:01:42.253Z,9.30
2022-11-05T00:04:28.261Z,9.30
2022-11-05T00:07:20.356Z,9.30
2022-11-05T00:09:50.813Z,9.40
2022-11-05T00:12:33.225Z,9.30
2022-11-05T00:15:18.313Z,9.30
2022-11-05T00:17:48.083Z,9.30
2022-11-05T00:20:17.846Z,9.30
2022-11-05T00:23:00.093Z,9.30
2022-11-05T00:25:30.356Z,9.30
2022-11-05T00:28:04.038Z,9.30
2022-11-05T00:30:36.367Z,9.30
2022-11-05T00:33:06.232Z,9.30
2022-11-05T00:35:36.018Z,9.30
2022-11-05T00:38:05.753Z,9.20
2022-11-05T00:40:35.535Z,9.20
2022-11-05T00:43:17.854Z,9.10
2022-11-05T00:45:50.217Z,9.10
2022-11-05T00:48:32.483Z,9.10
2022-11-05T00:51:02.232Z,9.10
2022-11-05T00:53:32.057Z,9.00
2022-11-05T00:56:02.076Z,9.00
2022-11-05T00:58:32.380Z,9.00
2022-11-05T01:01:05.405Z,9.00
2022-11-05T01:03:37.945Z,9.00
2022-11-05T01:06:13.539Z,9.00
2022-11-05T01:08:44.770Z,8.90
2022-11-05T01:11:33.147Z,8.90
2022-11-05T01:14:05.106Z,8.90
2022-11-05T01:16:37.604Z,9.00
2022-11-05T01:19:09.012Z,9.00
2022-11-05T01:21:38.911Z,9.00
2022-11-05T01:24:10.461Z,9.00
2022-11-05T01:26:40.223Z,9.00
2022-11-05T01:29:10.041Z,9.10
2022-11-05T01:31:42.438Z,9.00
2022-11-05T01:34:12.199Z,9.00
2022-11-05T01:36:41.959Z,9.00
2022-11-05T01:39:11.701Z,9.00
2022-11-05T01:41:41.461Z,9.00
2022-11-05T01:44:41.156Z,9.00
2022-11-05T01:47:26.686Z,9.00
2022-11-05T01:49:57.394Z,9.10
2022-11-05T01:52:27.873Z,9.00
2022-11-05T01:54:58.094Z,9.00
2022-11-05T01:57:28.172Z,9.10
2022-11-05T02:00:02.255Z,9.10
2022-11-05T02:02:34.963Z,9.00
2022-11-05T02:05:08.666Z,9.00
2022-11-05T02:07:38.905Z,9.00
2022-11-05T02:10:13.703Z,9.00
2022-11-05T02:12:47.193Z,9.10
2022-11-05T02:15:20.768Z,9.00
2022-11-05T02:18:01.365Z,9.00
2022-11-05T02:20:41.225Z,9.00
2022-11-05T02:23:48.241Z,9.00
2022-11-05T02:26:48.009Z,9.10
2022-11-05T02:29:41.404Z,9.10
2022-11-05T02:32:21.783Z,9.10
2022-11-05T02:34:58.618Z,9.00
2022-11-05T02:37:40.661Z,9.10
2022-11-05T02:40:20.729Z,9.00
2022-11-05T02:43:01.132Z,9.10
2022-11-05T02:45:43.180Z,9.00
2022-11-05T02:48:23.677Z,9.00
2022-11-05T02:50:59.509Z,9.10
2022-11-05T02:53:37.138Z,9.10
2022-11-05T02:56:12.144Z,9.10
2022-11-05T02:58:41.902Z,9.10
2022-11-05T03:01:13.993Z,9.10
2022-11-05T03:03:48.679Z,9.00
2022-11-05T03:06:54.669Z,9.00
2022-11-05T03:09:37.303Z,9.00
2022-11-05T03:12:18.567Z,9.00
2022-11-05T03:14:58.531Z,9.00
2022-11-05T03:17:36.672Z,9.00
2022-11-05T03:20:19.102Z,9.00
2022-11-05T03:22:54.393Z,8.90
2022-11-05T03:25:26.828Z,8.90
2022-11-05T03:28:00.961Z,8.90
2022-11-05T03:30:30.779Z,8.90
2022-11-05T03:33:05.991Z,9.00
2022-11-05T03:35:42.522Z,9.00
2022-11-05T03:38:18.183Z,9.00
2022-11-05T03:40:51.159Z,9.00
2022-11-05T03:43:23.625Z,9.00
2022-11-05T03:45:58.717Z,9.00
2022-11-05T03:48:33.397Z,9.00
2022-11-05T03:51:11.080Z,9.00
2022-11-05T03:53:46.184Z,8.90
2022-11-05T03:56:22.554Z,8.90
2022-11-05T03:58:58.511Z,8.90
2022-11-05T04:01:29.348Z,8.90
2022-11-05T04:03:59.238Z,8.90
2022-11-05T04:06:44.073Z,8.90
2022-11-05T04:09:26.319Z,8.90
2022-11-05T04:12:08.533Z,8.90
2022-11-05T04:14:39.459Z,8.90
2022-11-05T04:17:06.630Z,8.90
2022-11-05T04:19:49.539Z,9.00
2022-11-05T04:22:34.462Z,8.90
2022-11-05T04:25:04.045Z,8.90
2022-11-05T04:27:33.927Z,8.90
2022-11-05T04:30:16.241Z,8.90
2022-11-05T04:32:46.031Z,8.90
2022-11-05T04:35:15.758Z,8.90
2022-11-05T04:37:48.085Z,8.90
2022-11-05T04:40:18.115Z,8.90
2022-11-05T04:42:47.912Z,8.90
2022-11-05T04:45:17.866Z,8.90
2022-11-05T04:47:47.609Z,8.90
2022-11-05T04:50:17.610Z,8.90
2022-11-05T04:52:49.955Z,8.90
2022-11-05T04:55:19.946Z,8.90
2022-11-05T04:57:51.517Z,8.90
2022-11-05T05:00:22.605Z,8.90
2022-11-05T05:02:52.547Z,8.90
2022-11-05T05:05:23.097Z,8.90
2022-11-05T05:07:55.423Z,8.90
2022-11-05T05:10:25.187Z,8.90
2022-11-05T05:12:54.934Z,8.90
2022-11-05T05:15:24.667Z,8.80
2022-11-05T05:17:54.662Z,8.80
2022-11-05T05:20:36.974Z,8.80
2022-11-05T05:23:09.520Z,8.90
2022-11-05T05:25:39.455Z,8.90
2022-11-05T05:28:09.279Z,8.90
2022-11-05T05:30:39.056Z,8.90
2022-11-05T05:33:08.997Z,8.90
2022-11-05T05:35:39.120Z,8.90
2022-11-05T05:38:11.488Z,8.90
2022-11-05T05:40:41.249Z,8.90
2022-11-05T05:43:11.236Z,8.90
2022-11-05T05:45:41.142Z,8.80
2022-11-05T05:48:10.917Z,8.80
2022-11-05T05:50:40.650Z,8.90
2022-11-05T05:53:13.177Z,8.90
2022-11-05T05:55:43.145Z,8.90
2022-11-05T05:58:16.148Z,8.90
2022-11-05T06:00:45.912Z,8.80
2022-11-05T06:03:15.656Z,8.80
2022-11-05T06:05:45.450Z,8.80
2022-11-05T06:08:17.791Z,8.90
2022-11-05T06:10:53.729Z,8.90
2022-11-05T06:13:23.601Z,8.80
2022-11-05T06:15:53.382Z,8.90
2022-11-05T06:18:23.120Z,8.80
2022-11-05T06:20:53.117Z,8.80
2022-11-05T06:23:25.642Z,8.80
2022-11-05T06:25:57.856Z,8.80
2022-11-05T06:28:27.636Z,8.80
2022-11-05T06:30:57.609Z,8.80
2022-11-05T06:33:27.674Z,8.80
2022-11-05T06:35:57.759Z,8.80
2022-11-05T06:38:30.507Z,8.80
2022-11-05T06:41:07.240Z,8.80
2022-11-05T06:43:40.084Z,8.70
2022-11-05T06:46:10.394Z,8.70
2022-11-05T06:48:40.584Z,8.70
2022-11-05T06:51:11.333Z,8.70
2022-11-05T06:53:43.647Z,8.60
2022-11-05T06:56:13.529Z,8.70
2022-11-05T06:58:43.331Z,8.80
2022-11-05T07:01:13.449Z,8.70
2022-11-05T07:03:45.091Z,8.80
2022-11-05T07:06:14.870Z,8.90
2022-11-05T07:08:47.302Z,8.90
2022-11-05T07:11:17.090Z,8.90
2022-11-05T07:13:46.853Z,9.10
2022-11-05T07:16:16.632Z,9.10
2022-11-05T07:18:46.365Z,9.10
2022-11-05T07:21:16.215Z,9.10
2022-11-05T07:23:48.568Z,9.00
2022-11-05T07:26:21.043Z,9.10
2022-11-05T07:28:50.810Z,9.00
2022-11-05T07:31:20.578Z,9.00
2022-11-05T07:33:50.343Z,9.00
2022-11-05T07:36:20.136Z,9.00
2022-11-05T07:38:57.394Z,9.00
2022-11-05T07:41:29.894Z,8.90
2022-11-05T07:43:59.711Z,8.90
2022-11-05T07:46:29.501Z,9.00
2022-11-05T07:48:59.313Z,8.90
2022-11-05T07:51:29.119Z,8.90
2022-11-05T07:54:01.499Z,8.80
2022-11-05T07:56:31.312Z,8.80
2022-11-05T07:59:01.297Z,8.90
2022-11-05T08:01:31.464Z,8.90
2022-11-05T08:04:01.325Z,8.90
2022-11-05T08:06:31.174Z,8.90
2022-11-05T08:09:03.551Z,9.00
2022-11-05T08:11:35.220Z,9.00
2022-11-05T08:14:04.931Z,8.90
2022-11-05T08:16:34.702Z,8.90
2022-11-05T08:19:04.759Z,8.80
2022-11-05T08:21:34.623Z,8.70
2022-11-05T08:24:07.405Z,8.60
2022-11-05T08:26:37.224Z,8.60
2022-11-05T08:29:07.027Z,8.60
2022-11-05T08:31:37.157Z,8.60
2022-11-05T08:34:07.559Z,8.50
2022-11-05T08:36:38.104Z,8.30
2022-11-05T08:39:15.784Z,8.50
2022-11-05T08:41:47.190Z,8.40
2022-11-05T08:44:16.993Z,8.40
2022-11-05T08:46:46.845Z,8.50
2022-11-05T08:49:16.736Z,8.50
2022-11-05T08:51:46.980Z,8.50
2022-11-05T08:54:19.307Z,8.50
2022-11-05T08:56:49.070Z,8.50
2022-11-05T08:59:19.079Z,8.40
2022-11-05T09:01:50.654Z,8.40
2022-11-05T09:04:20.542Z,8.60
2022-11-05T09:06:50.343Z,8.40
2022-11-05T09:09:22.680Z,8.50
2022-11-05T09:14:42.666Z,8.50
2022-11-05T09:17:19.386Z,8.60
2022-11-05T09:19:49.457Z,8.60
2022-11-05T09:22:19.514Z,8.60
2022-11-05T09:24:51.845Z,8.60
2022-11-05T09:27:21.667Z,8.50
2022-11-05T09:29:51.458Z,8.50
2022-11-05T09:32:23.167Z,8.50
2022-11-05T09:34:53.107Z,8.50
2022-11-05T09:37:22.944Z,8.50
2022-11-05T09:39:55.335Z,8.50
2022-11-05T09:42:28.902Z,8.40
2022-11-05T09:45:02.010Z,8.60
2022-11-05T09:47:36.739Z,8.80
2022-11-05T09:50:11.749Z,8.90
2022-11-05T09:52:41.635Z,8.90
2022-11-05T09:55:22.822Z,8.90
2022-11-05T09:57:57.226Z,8.90
2022-11-05T10:00:27.373Z,9.10
2022-11-05T10:02:59.961Z,9.00
2022-11-05T10:05:30.543Z,8.90
2022-11-05T10:08:02.431Z,9.00
2022-11-05T10:10:42.194Z,9.00
2022-11-05T10:13:21.923Z,8.90
2022-11-05T10:15:58.112Z,8.90
2022-11-05T10:18:31.426Z,9.00
2022-11-05T10:21:01.647Z,9.00
2022-11-05T10:23:32.424Z,9.00
2022-11-05T10:26:07.993Z,9.00
2022-11-05T10:28:38.309Z,8.90
2022-11-05T10:31:11.592Z,8.70
2022-11-05T10:33:44.799Z,8.80
2022-11-05T10:36:18.193Z,8.70
2022-11-05T10:38:48.238Z,8.80
2022-11-05T10:41:38.182Z,8.70
2022-11-05T10:44:19.156Z,8.60
2022-11-05T10:47:00.665Z,8.70
2022-11-05T10:49:45.944Z,8.80
2022-11-05T10:52:24.639Z,8.80
2022-11-05T10:54:57.587Z,9.10
2022-11-05T10:57:36.676Z,9.30
2022-11-05T11:00:31.048Z,9.10
2022-11-05T11:03:02.746Z,9.50
2022-11-05T11:05:35.690Z,9.60
2022-11-05T11:08:18.346Z,9.40
2022-11-05T11:10:53.107Z,9.40
2022-11-05T11:13:27.694Z,9.50
2022-11-05T11:15:57.419Z,9.50
2022-11-05T11:18:32.444Z,9.20
2022-11-05T11:21:15.329Z,9.20
2022-11-05T11:23:46.413Z,9.20
2022-11-05T11:26:16.459Z,9.50
2022-11-05T11:28:51.691Z,9.60
2022-11-05T11:31:25.747Z,9.70
2022-11-05T11:34:00.985Z,9.50
2022-11-05T11:36:37.032Z,9.30
2022-11-05T11:39:09.538Z,9.60
2022-11-05T11:41:42.541Z,9.90
2022-11-05T11:44:18.803Z,10.30
2022-11-05T11:46:52.028Z,10.40
2022-11-05T11:49:36.327Z,10.30
2022-11-05T11:52:12.095Z,10.10
2022-11-05T11:54:42.003Z,10.20
2022-11-05T11:57:24.445Z,10.20
2022-11-05T12:00:14.373Z,10.10
2022-11-05T12:03:09.643Z,10.10
2022-11-05T12:05:43.394Z,10.10
2022-11-05T12:08:32.994Z,10.00
2022-11-05T12:11:09.777Z,10.00
2022-11-05T12:14:02.230Z,10.20
2022-11-05T12:17:03.717Z,10.60
2022-11-05T12:20:04.443Z,10.40
2022-11-05T12:22:51.444Z,10.20
2022-11-05T12:25:29.070Z,10.30
2022-11-05T12:28:13.209Z,10.20
2022-11-05T12:30:51.562Z,10.20
2022-11-05T12:33:42.291Z,10.20
2022-11-05T12:36:21.834Z,10.30
2022-11-05T12:39:19.272Z,10.30
2022-11-05T12:41:53.686Z,10.30
2022-11-05T12:44:39.677Z,10.40
2022-11-05T12:47:21.432Z,10.30
2022-11-05T12:50:06.669Z,10.20
2022-11-05T12:53:04.115Z,10.30
2022-11-05T12:55:44.074Z,10.30
2022-11-05T12:58:20.984Z,10.40
2022-11-05T13:00:57.497Z,10.40
2022-11-05T13:03:40.951Z,10.50
2022-11-05T13:06:15.907Z,10.50
2022-11-05T13:08:54.780Z,10.40
2022-11-05T13:11:29.693Z,10.40
2022-11-05T13:14:07.621Z,10.40
2022-11-05T13:16:40.612Z,10.40
2022-11-05T13:19:20.102Z,10.40
2022-11-05T13:21:55.999Z,10.40
2022-11-05T13:24:29.832Z,10.40
2022-11-05T13:27:06.218Z,10.40
2022-11-05T13:29:41.240Z,10.40
2022-11-05T13:32:27.723Z,10.30
2022-11-05T13:34:58.660Z,10.20
2022-11-05T13:37:51.798Z,10.20
2022-11-05T13:40:25.580Z,10.20
2022-11-05T13:43:13.379Z,10.10
2022-11-05T13:46:05.808Z,10.10
2022-11-05T13:49:11.824Z,10.10
2022-11-05T13:51:52.158Z,10.20
2022-11-05T13:54:51.625Z,10.20
2022-11-05T13:57:51.610Z,10.10
2022-11-05T14:00:27.001Z,10.10
2022-11-05T14:02:59.681Z,10.10
2022-11-05T14:05:33.201Z,10.10
2022-11-05T14:08:05.027Z,10.00
2022-11-05T14:10:39.335Z,10.00
2022-11-05T14:13:23.508Z,10.10
2022-11-05T14:16:07.118Z,10.10
2022-11-05T14:18:41.497Z,10.00
2022-11-05T14:21:33.885Z,10.00
2022-11-05T14:24:26.558Z,10.00
2022-11-05T14:27:26.490Z,10.00
2022-11-05T14:29:56.350Z,9.90
2022-11-05T14:32:46.415Z,9.90
2022-11-05T14:35:39.166Z,9.90
2022-11-05T14:38:20.177Z,9.80
2022-11-05T14:40:50.875Z,9.80
2022-11-05T14:43:24.380Z,9.70
2022-11-05T14:46:00.604Z,9.70
2022-11-05T14:48:40.340Z,9.70
2022-11-05T14:51:27.602Z,9.70
2022-11-05T14:54:08.169Z,9.70
2022-11-05T14:56:50.551Z,9.70
2022-11-05T14:59:37.873Z,9.70
2022-11-05T15:02:14.627Z,9.60
2022-11-05T15:04:47.980Z,9.70
2022-11-05T15:07:37.999Z,9.70
2022-11-05T15:10:15.821Z,9.70
2022-11-05T15:12:49.366Z,9.70
2022-11-05T15:15:25.257Z,9.60
2022-11-05T15:18:03.701Z,9.60
2022-11-05T15:20:42.221Z,9.60
2022-11-05T15:23:16.190Z,9.60
2022-11-05T15:25:53.518Z,9.60
2022-11-05T15:28:31.648Z,9.60
2022-11-05T15:31:04.054Z,9.60
2022-11-05T15:33:35.135Z,9.60
2022-11-05T15:36:23.239Z,9.60
2022-11-05T15:39:22.841Z,9.60
2022-11-05T15:41:43.123Z,9.60
2022-11-05T15:44:26.989Z,9.50
2022-11-05T15:47:19.421Z,9.60
2022-11-05T15:49:51.017Z,9.50
2022-11-05T15:52:25.198Z,9.50
2022-11-05T15:55:19.966Z,9.50
2022-11-05T15:57:52.283Z,9.50
2022-11-05T16:00:24.488Z,9.50
2022-11-05T16:02:57.272Z,9.40
2022-11-05T16:05:29.039Z,9.30
2022-11-05T16:08:04.365Z,9.40
2022-11-05T16:10:36.894Z,9.30
2022-11-05T16:13:34.696Z,9.30
2022-11-05T16:16:07.253Z,9.30
2022-11-05T16:18:39.100Z,9.20
2022-11-05T16:21:10.793Z,9.20
2022-11-05T16:23:56.314Z,9.20
2022-11-05T16:27:00.490Z,9.10
2022-11-05T16:29:26.530Z,9.00
2022-11-05T16:31:59.030Z,9.00
2022-11-05T16:34:31.736Z,8.80
2022-11-05T16:37:02.675Z,8.80
2022-11-05T16:39:35.725Z,8.80
2022-11-05T16:42:15.816Z,8.80
2022-11-05T16:44:45.608Z,8.70
2022-11-05T16:47:15.365Z,8.60
2022-11-05T16:49:45.134Z,8.60
2022-11-05T16:52:18.459Z,8.50
2022-11-05T16:54:51.037Z,8.40
2022-11-05T16:57:27.447Z,8.40
2022-11-05T16:59:58.133Z,8.30
2022-11-05T17:02:28.239Z,8.20
2022-11-05T17:04:58.173Z,8.10
2022-11-05T17:07:27.949Z,8.10
2022-11-05T17:10:00.316Z,8.10
2022-11-05T17:12:30.085Z,8.00
2022-11-05T17:14:59.837Z,8.00
2022-11-05T17:17:29.588Z,8.00
2022-11-05T17:19:59.337Z,7.90
2022-11-05T17:22:29.113Z,7.80
2022-11-05T17:25:01.457Z,7.80
2022-11-05T17:27:31.215Z,7.80
2022-11-05T17:30:01.157Z,7.70
2022-11-05T17:32:31.056Z,7.70
2022-11-05T17:35:00.882Z,7.60
2022-11-05T17:37:30.904Z,7.60
2022-11-05T17:40:03.370Z,7.60
2022-11-05T17:42:33.115Z,7.60
2022-11-05T17:45:03.120Z,7.50
2022-11-05T17:47:33.019Z,7.50
2022-11-05T17:50:02.834Z,7.40
2022-11-05T17:52:32.665Z,7.30
2022-11-05T17:55:05.481Z,7.30
2022-11-05T17:57:35.275Z,7.20
2022-11-05T18:00:05.046Z,7.20
2022-11-05T18:02:35.652Z,7.10
2022-11-05T18:05:05.502Z,7.10
2022-11-05T18:07:35.260Z,7.10
2022-11-05T18:10:08.574Z,7.10
2022-11-05T18:12:38.864Z,7.00
2022-11-05T18:15:09.899Z,7.10
2022-11-05T18:17:40.167Z,7.00
2022-11-05T18:20:18.465Z,6.90
2022-11-05T18:22:50.628Z,6.80
2022-11-05T18:25:23.123Z,6.80
2022-11-05T18:27:52.906Z,6.80
2022-11-05T18:30:22.752Z,6.70
2022-11-05T18:32:52.787Z,6.80
2022-11-05T18:35:22.590Z,6.70
2022-11-05T18:37:52.407Z,6.70
2022-11-05T18:40:24.759Z,6.70
2022-11-05T18:42:54.512Z,6.60
2022-11-05T18:45:29.420Z,6.60
2022-11-05T18:47:59.730Z,6.50
2022-11-05T18:50:29.595Z,6.50
2022-11-05T18:52:59.473Z,6.60
2022-11-05T18:55:31.875Z,6.60
2022-11-05T18:58:01.707Z,6.50
2022-11-05T19:00:32.118Z,6.50
2022-11-05T19:03:06.426Z,6.50
2022-11-05T19:05:36.525Z,6.50
2022-11-05T19:08:06.583Z,6.50
2022-11-05T19:10:42.428Z,6.40
2022-11-05T19:13:12.265Z,6.40
2022-11-05T19:15:45.149Z,6.40
2022-11-05T19:18:15.170Z,6.50
2022-11-05T19:20:45.243Z,6.40
2022-11-05T19:23:15.001Z,6.50
2022-11-05T19:25:47.371Z,6.40
2022-11-05T19:28:17.165Z,6.40
2022-11-05T19:30:47.480Z,6.40
2022-11-05T19:33:17.437Z,6.40
2022-11-05T19:35:47.205Z,6.30
2022-11-05T19:38:17.004Z,6.30
2022-11-05T19:40:49.675Z,6.30
2022-11-05T19:43:19.557Z,6.40
2022-11-05T19:45:49.363Z,6.30
2022-11-05T19:48:21.064Z,6.30
2022-11-05T19:50:51.060Z,6.30
2022-11-05T19:53:20.849Z,6.30
2022-11-05T19:55:53.192Z,6.30
2022-11-05T19:58:22.999Z,6.40
2022-11-05T20:00:52.734Z,6.40
2022-11-05T20:03:22.620Z,6.40
2022-11-05T20:05:52.555Z,6.40
2022-11-05T20:08:22.337Z,6.40
2022-11-05T20:10:59.035Z,6.40
2022-11-05T20:13:28.885Z,6.30
2022-11-05T20:15:58.908Z,6.40
2022-11-05T20:18:29.084Z,6.40
2022-11-05T20:21:07.019Z,6.30
2022-11-05T20:23:37.537Z,6.30
2022-11-05T20:26:10.522Z,6.40
2022-11-05T20:28:41.354Z,6.40
2022-11-05T20:31:12.678Z,6.40
2022-11-05T20:33:44.061Z,6.40
2022-11-05T20:36:17.603Z,6.40
2022-11-05T20:38:50.979Z,6.40
2022-11-05T20:41:23.851Z,6.30
2022-11-05T20:43:54.222Z,6.20
2022-11-05T20:46:25.078Z,6.20
2022-11-05T20:48:54.863Z,6.30
2022-11-05T20:51:26.275Z,6.30
2022-11-05T20:53:58.256Z,6.30
2022-11-05T20:56:32.997Z,6.30
2022-11-05T20:59:03.957Z,6.30
2022-11-05T21:01:35.940Z,6.30
2022-11-05T21:04:06.739Z,6.30
2022-11-05T21:06:37.497Z,6.30
2022-11-05T21:09:08.270Z,6.30
2022-11-05T21:11:52.895Z,6.30
2022-11-05T21:14:22.686Z,6.30
2022-11-05T21:16:52.788Z,6.30
2022-11-05T21:19:23.985Z,6.20
2022-11-05T21:21:53.815Z,6.20
2022-11-05T21:24:23.718Z,6.20
2022-11-05T21:26:56.407Z,6.10
2022-11-05T21:29:26.212Z,6.10
2022-11-05T21:31:56.626Z,6.00
2022-11-05T21:34:27.735Z,6.00
2022-11-05T21:36:57.483Z,6.00
2022-11-05T21:39:27.766Z,5.90
2022-11-05T21:42:00.116Z,5.90
2022-11-05T21:44:29.915Z,5.90
2022-11-05T21:47:04.473Z,5.90
2022-11-05T21:49:36.257Z,5.90
2022-11-05T21:52:19.139Z,5.80
2022-11-05T21:55:01.778Z,5.80
2022-11-05T21:57:46.765Z,5.80
2022-11-05T22:00:17.014Z,5.80
2022-11-05T22:02:46.939Z,5.70
2022-11-05T22:05:16.803Z,5.80
2022-11-05T22:07:46.698Z,5.70
2022-11-05T22:10:17.221Z,5.70
2022-11-05T22:12:49.624Z,5.80
2022-11-05T22:15:19.626Z,5.70
2022-11-05T22:17:52.580Z,5.70
2022-11-05T22:20:22.418Z,5.70
2022-11-05T22:22:52.501Z,5.70
2022-11-05T22:25:23.079Z,5.60
2022-11-05T22:27:55.475Z,5.60
2022-11-05T22:30:25.312Z,5.60
2022-11-05T22:32:55.227Z,5.60
2022-11-05T22:35:25.080Z,5.60
2022-11-05T22:37:54.865Z,5.50
2022-11-05T22:40:24.638Z,5.50
2022-11-05T22:42:57.023Z,5.40
2022-11-05T22:45:26.870Z,5.40
2022-11-05T22:47:56.683Z,5.40
2022-11-05T22:50:26.506Z,5.40
2022-11-05T22:52:56.249Z,5.40
2022-11-05T22:55:26.092Z,5.30
2022-11-05T22:57:58.517Z,5.30
2022-11-05T23:00:40.740Z,5.30
2022-11-05T23:03:10.637Z,5.30
2022-11-05T23:05:40.481Z,5.30
2022-11-05T23:08:22.791Z,5.30
2022-11-05T23:11:05.132Z,5.40
2022-11-05T23:13:37.501Z,5.40
2022-11-05T23:16:20.551Z,5.40
2022-11-05T23:19:02.785Z,5.30
2022-11-05T23:21:45.067Z,5.40
2022-11-05T23:24:15.468Z,5.50
2022-11-05T23:26:54.163Z,5.50
2022-11-05T23:29:29.626Z,5.40
2022-11-05T23:32:12.027Z,5.40
2022-11-05T23:34:42.103Z,5.40
2022-11-05T23:37:24.776Z,5.40
2022-11-05T23:39:54.918Z,5.40
2022-11-05T23:42:37.493Z,5.40
2022-11-05T23:45:23.969Z,5.40
2022-11-05T23:48:06.272Z,5.40
2022-11-05T23:50:39.748Z,5.40
2022-11-05T23:53:10.682Z,5.30
2022-11-05T23:55:40.818Z,5.30
2022-11-05T23:58:11.822Z,5.30
